Finley, ND (58230)

2:02 PM CDT on August 29, 2014 (GMT -0500)
Grand Forks Air Force Base | Change Station
CLOSE
Current Station
Airport
Location: Grand Forks AFB,
Elevation: 912 ft
Nearby Weather Stations

Elev 912 ft 47.96 °N, 97.40 °W | Updated 4 minutes ago

Overcast
Overcast
70 °F
Feels Like 70 °F
N
1
Wind Variable Wind from NNE

Today
High -- | Low -- °F
--% Chance of Precip.
Yesterday
High -- | Low -- °F
Precip. -- in
6:45 AM 8:16 PM
Waxing Crescent, 16% visible
Pressure 29.78 in
Visibility 10.0 miles
Clouds Few 800 ft
Scattered Clouds 2700 ft
Overcast 4100 ft
Dew Point 69 °F
Humidity 99%
Rainfall 0.00 in
Snow Depth Not available.
UV 2 out of 12
Pollen 9.40 out of 12
Air Quality Not available.
Flu Activity Not available.
METAR KRDR 291858Z AUTO 03001KT 10SM FEW008 SCT027 OVC041 21/21 A2977 RMK AO2 SLP083 T02100208

More Conditions Fewer Conditions

Pressure 29.78 in
Visibility 10.0 miles
Clouds Few 800 ft
Scattered Clouds 2700 ft
Overcast 4100 ft
Dew Point 69 °F
Humidity 99%
Rainfall 0.00 in
Snow Depth Not available.
UV 2 out of 12
Pollen 9.40 out of 12
Air Quality Not available.
Flu Activity Not available.
METAR KRDR 291858Z AUTO 03001KT 10SM FEW008 SCT027 OVC041 21/21 A2977 RMK AO2 SLP083 T02100208

More Conditions Fewer Conditions

10-Day Weather Forecast

Almanac

Astronomy

Aug. 29, 2014 Rise Set
Actual Time 6:45 AM CDT 8:16 PM CDT
Civil Twilight 6:13 AM CDT 8:49 PM CDT
Nautical Twilight 5:34 AM CDT 9:27 PM CDT
Astronomical Twilight 4:51 AM CDT 10:10 PM CDT
Moon 10:55 AM CDT 9:55 PM CDT
Length of Visible Light 14h 35m
Length of Day
13h 31m
Tomorrow will be 3m 17s shorter.
Waxing Crescent, 16% of the Moon is Illuminated
Today
Waxing Crescent
Sep 2
First Quarter
Sep 8
Full
Sep 15
Last Quarter
Sep 24
New

Today's Extremes

State Highs State Lows

Community

WunderPhotos

Upload Photos

1,748,314 photos uploaded!

Nearby

Snow Depth

Station Depth Elevation
No new snow has been reported.

Earthquake Activity

City Distance Mag. Time & Date
No recent earthquake activity has been reported nearby.
Minimum magnitude displayed is 2.5.

Coastal Water Temperatures

Place Temperature
No Stations Reporting

Nearby Weather Stations